sensor_id;sensor_type;location;lat;lon;timestamp;P1;durP1;ratioP1;P2;durP2;ratioP2
16737;SDS011;17906;47.684;10.806;2023-05-07T00:00:43;3.80;;;2.67;;
16737;SDS011;17906;47.684;10.806;2023-05-07T00:03:09;4.60;;;2.70;;
16737;SDS011;17906;47.684;10.806;2023-05-07T00:05:37;5.17;;;2.60;;
16737;SDS011;17906;47.684;10.806;2023-05-07T00:08:04;6.43;;;3.07;;
16737;SDS011;17906;47.684;10.806;2023-05-07T00:10:31;7.10;;;3.30;;
16737;SDS011;17906;47.684;10.806;2023-05-07T00:12:57;5.00;;;2.70;;
16737;SDS011;17906;47.684;10.806;2023-05-07T00:15:24;4.47;;;3.00;;
16737;SDS011;17906;47.684;10.806;2023-05-07T00:17:50;6.47;;;2.63;;
16737;SDS011;17906;47.684;10.806;2023-05-07T00:20:17;5.80;;;3.57;;
16737;SDS011;17906;47.684;10.806;2023-05-07T00:22:45;6.17;;;3.30;;
16737;SDS011;17906;47.684;10.806;2023-05-07T00:25:11;3.77;;;3.10;;
16737;SDS011;17906;47.684;10.806;2023-05-07T00:27:38;4.63;;;2.90;;
16737;SDS011;17906;47.684;10.806;2023-05-07T00:30:05;4.13;;;3.20;;
16737;SDS011;17906;47.684;10.806;2023-05-07T00:32:32;4.00;;;2.90;;
16737;SDS011;17906;47.684;10.806;2023-05-07T00:34:59;4.23;;;2.97;;
16737;SDS011;17906;47.684;10.806;2023-05-07T00:37:25;4.60;;;2.80;;
16737;SDS011;17906;47.684;10.806;2023-05-07T00:39:53;5.03;;;2.90;;
16737;SDS011;17906;47.684;10.806;2023-05-07T00:42:20;4.37;;;3.03;;
16737;SDS011;17906;47.684;10.806;2023-05-07T00:44:47;3.73;;;3.00;;
16737;SDS011;17906;47.684;10.806;2023-05-07T00:47:13;3.60;;;2.97;;
16737;SDS011;17906;47.684;10.806;2023-05-07T00:49:41;3.87;;;2.60;;
16737;SDS011;17906;47.684;10.806;2023-05-07T00:52:09;4.80;;;2.97;;
16737;SDS011;17906;47.684;10.806;2023-05-07T00:54:37;4.30;;;3.20;;
16737;SDS011;17906;47.684;10.806;2023-05-07T00:57:07;3.87;;;3.13;;
16737;SDS011;17906;47.684;10.806;2023-05-07T00:59:36;4.13;;;2.67;;
16737;SDS011;17906;47.684;10.806;2023-05-07T01:02:03;3.73;;;3.03;;
16737;SDS011;17906;47.684;10.806;2023-05-07T01:04:30;4.97;;;3.93;;
16737;SDS011;17906;47.684;10.806;2023-05-07T01:06:56;6.20;;;3.33;;
16737;SDS011;17906;47.684;10.806;2023-05-07T01:09:24;4.40;;;3.00;;
16737;SDS011;17906;47.684;10.806;2023-05-07T01:11:51;3.53;;;2.60;;
16737;SDS011;17906;47.684;10.806;2023-05-07T01:14:20;5.93;;;3.10;;
16737;SDS011;17906;47.684;10.806;2023-05-07T01:16:47;3.73;;;2.87;;
16737;SDS011;17906;47.684;10.806;2023-05-07T01:19:16;4.23;;;3.10;;
16737;SDS011;17906;47.684;10.806;2023-05-07T01:21:44;4.47;;;3.47;;
16737;SDS011;17906;47.684;10.806;2023-05-07T01:24:14;6.67;;;3.47;;
16737;SDS011;17906;47.684;10.806;2023-05-07T01:26:42;4.23;;;3.30;;
16737;SDS011;17906;47.684;10.806;2023-05-07T01:29:09;5.33;;;3.70;;
16737;SDS011;17906;47.684;10.806;2023-05-07T01:31:36;4.50;;;3.40;;
16737;SDS011;17906;47.684;10.806;2023-05-07T01:34:04;5.27;;;3.83;;
16737;SDS011;17906;47.684;10.806;2023-05-07T01:36:33;6.83;;;3.50;;
16737;SDS011;17906;47.684;10.806;2023-05-07T01:39:00;4.30;;;3.23;;
16737;SDS011;17906;47.684;10.806;2023-05-07T01:41:29;6.50;;;3.70;;
16737;SDS011;17906;47.684;10.806;2023-05-07T01:43:56;4.30;;;3.50;;
16737;SDS011;17906;47.684;10.806;2023-05-07T01:46:25;8.73;;;3.50;;
16737;SDS011;17906;47.684;10.806;2023-05-07T01:48:53;4.17;;;3.20;;
16737;SDS011;17906;47.684;10.806;2023-05-07T01:51:19;5.07;;;3.27;;
16737;SDS011;17906;47.684;10.806;2023-05-07T01:53:47;4.20;;;3.13;;
16737;SDS011;17906;47.684;10.806;2023-05-07T01:56:15;4.87;;;3.20;;
16737;SDS011;17906;47.684;10.806;2023-05-07T01:58:44;3.53;;;2.70;;
16737;SDS011;17906;47.684;10.806;2023-05-07T02:01:10;4.23;;;2.90;;
16737;SDS011;17906;47.684;10.806;2023-05-07T02:03:37;3.83;;;2.83;;
16737;SDS011;17906;47.684;10.806;2023-05-07T02:06:04;4.17;;;2.90;;
16737;SDS011;17906;47.684;10.806;2023-05-07T02:08:30;3.70;;;2.60;;
16737;SDS011;17906;47.684;10.806;2023-05-07T02:10:57;3.77;;;2.90;;
16737;SDS011;17906;47.684;10.806;2023-05-07T02:13:25;7.30;;;3.37;;
16737;SDS011;17906;47.684;10.806;2023-05-07T02:15:54;6.40;;;3.63;;
16737;SDS011;17906;47.684;10.806;2023-05-07T02:18:21;6.17;;;3.50;;
16737;SDS011;17906;47.684;10.806;2023-05-07T02:20:47;6.37;;;3.27;;
16737;SDS011;17906;47.684;10.806;2023-05-07T02:23:14;4.47;;;3.10;;
16737;SDS011;17906;47.684;10.806;2023-05-07T02:25:40;4.97;;;3.27;;
16737;SDS011;17906;47.684;10.806;2023-05-07T02:28:07;8.40;;;3.13;;
16737;SDS011;17906;47.684;10.806;2023-05-07T02:30:33;7.60;;;2.63;;
16737;SDS011;17906;47.684;10.806;2023-05-07T02:33:01;4.67;;;2.90;;
16737;SDS011;17906;47.684;10.806;2023-05-07T02:35:28;5.67;;;3.03;;
16737;SDS011;17906;47.684;10.806;2023-05-07T02:37:54;4.33;;;3.00;;
16737;SDS011;17906;47.684;10.806;2023-05-07T02:40:21;5.20;;;3.13;;
16737;SDS011;17906;47.684;10.806;2023-05-07T02:42:48;4.03;;;3.30;;
16737;SDS011;17906;47.684;10.806;2023-05-07T02:45:14;8.23;;;3.37;;
16737;SDS011;17906;47.684;10.806;2023-05-07T02:47:41;4.83;;;3.23;;
16737;SDS011;17906;47.684;10.806;2023-05-07T02:50:09;5.73;;;3.50;;
16737;SDS011;17906;47.684;10.806;2023-05-07T02:52:36;3.73;;;3.00;;
16737;SDS011;17906;47.684;10.806;2023-05-07T02:55:03;8.67;;;2.60;;
16737;SDS011;17906;47.684;10.806;2023-05-07T02:57:30;5.43;;;3.07;;
16737;SDS011;17906;47.684;10.806;2023-05-07T02:59:57;3.67;;;2.90;;
16737;SDS011;17906;47.684;10.806;2023-05-07T03:02:24;4.93;;;2.93;;
16737;SDS011;17906;47.684;10.806;2023-05-07T03:04:51;3.67;;;3.00;;
16737;SDS011;17906;47.684;10.806;2023-05-07T03:07:19;7.43;;;2.93;;
16737;SDS011;17906;47.684;10.806;2023-05-07T03:09:45;4.17;;;2.60;;
16737;SDS011;17906;47.684;10.806;2023-05-07T03:12:12;3.63;;;2.40;;
16737;SDS011;17906;47.684;10.806;2023-05-07T03:14:38;2.50;;;2.30;;
16737;SDS011;17906;47.684;10.806;2023-05-07T03:17:05;8.60;;;3.00;;
16737;SDS011;17906;47.684;10.806;2023-05-07T03:19:31;3.27;;;2.53;;
16737;SDS011;17906;47.684;10.806;2023-05-07T03:21:58;6.40;;;2.80;;
16737;SDS011;17906;47.684;10.806;2023-05-07T03:24:26;6.03;;;3.10;;
16737;SDS011;17906;47.684;10.806;2023-05-07T03:26:52;4.77;;;3.40;;
16737;SDS011;17906;47.684;10.806;2023-05-07T03:29:19;6.27;;;2.70;;
16737;SDS011;17906;47.684;10.806;2023-05-07T03:31:45;4.40;;;3.07;;
16737;SDS011;17906;47.684;10.806;2023-05-07T03:34:12;3.30;;;2.77;;
16737;SDS011;17906;47.684;10.806;2023-05-07T03:36:39;5.00;;;3.50;;
16737;SDS011;17906;47.684;10.806;2023-05-07T03:39:05;5.00;;;4.17;;
16737;SDS011;17906;47.684;10.806;2023-05-07T03:41:33;5.40;;;3.80;;
16737;SDS011;17906;47.684;10.806;2023-05-07T03:44:00;5.97;;;3.97;;
16737;SDS011;17906;47.684;10.806;2023-05-07T03:46:27;6.20;;;4.00;;
16737;SDS011;17906;47.684;10.806;2023-05-07T03:48:53;7.77;;;4.20;;
16737;SDS011;17906;47.684;10.806;2023-05-07T03:51:20;5.67;;;3.60;;
16737;SDS011;17906;47.684;10.806;2023-05-07T03:53:46;6.20;;;3.37;;
16737;SDS011;17906;47.684;10.806;2023-05-07T03:56:13;4.40;;;3.27;;
16737;SDS011;17906;47.684;10.806;2023-05-07T03:58:41;4.90;;;3.13;;
16737;SDS011;17906;47.684;10.806;2023-05-07T04:01:07;8.87;;;3.13;;
16737;SDS011;17906;47.684;10.806;2023-05-07T04:03:34;3.70;;;2.70;;
16737;SDS011;17906;47.684;10.806;2023-05-07T04:06:01;3.60;;;3.00;;
16737;SDS011;17906;47.684;10.806;2023-05-07T04:08:29;3.47;;;2.80;;
16737;SDS011;17906;47.684;10.806;2023-05-07T04:10:55;5.67;;;3.10;;
16737;SDS011;17906;47.684;10.806;2023-05-07T04:13:22;4.07;;;2.90;;
16737;SDS011;17906;47.684;10.806;2023-05-07T04:15:50;4.73;;;2.83;;
16737;SDS011;17906;47.684;10.806;2023-05-07T04:18:17;3.60;;;2.63;;
16737;SDS011;17906;47.684;10.806;2023-05-07T04:20:43;3.10;;;2.10;;
16737;SDS011;17906;47.684;10.806;2023-05-07T04:23:10;5.03;;;2.73;;
16737;SDS011;17906;47.684;10.806;2023-05-07T04:25:36;4.27;;;2.80;;
16737;SDS011;17906;47.684;10.806;2023-05-07T04:28:03;14.57;;;3.00;;
16737;SDS011;17906;47.684;10.806;2023-05-07T04:30:31;6.53;;;2.97;;
16737;SDS011;17906;47.684;10.806;2023-05-07T04:32:59;3.80;;;3.00;;
16737;SDS011;17906;47.684;10.806;2023-05-07T04:35:25;6.53;;;2.67;;
16737;SDS011;17906;47.684;10.806;2023-05-07T04:37:52;4.50;;;2.80;;
16737;SDS011;17906;47.684;10.806;2023-05-07T04:40:18;35.20;;;4.60;;
16737;SDS011;17906;47.684;10.806;2023-05-07T04:42:45;6.27;;;3.83;;
16737;SDS011;17906;47.684;10.806;2023-05-07T04:45:12;7.33;;;3.10;;
16737;SDS011;17906;47.684;10.806;2023-05-07T04:47:38;5.53;;;3.33;;
16737;SDS011;17906;47.684;10.806;2023-05-07T04:50:07;4.20;;;3.10;;
16737;SDS011;17906;47.684;10.806;2023-05-07T04:52:34;4.57;;;3.20;;
16737;SDS011;17906;47.684;10.806;2023-05-07T04:55:00;6.63;;;3.07;;
16737;SDS011;17906;47.684;10.806;2023-05-07T04:57:27;4.43;;;3.40;;
16737;SDS011;17906;47.684;10.806;2023-05-07T04:59:54;4.43;;;3.50;;
16737;SDS011;17906;47.684;10.806;2023-05-07T05:02:20;8.57;;;3.80;;
16737;SDS011;17906;47.684;10.806;2023-05-07T05:04:47;4.73;;;3.33;;
16737;SDS011;17906;47.684;10.806;2023-05-07T05:07:15;4.23;;;3.30;;
16737;SDS011;17906;47.684;10.806;2023-05-07T05:09:41;5.90;;;4.47;;
16737;SDS011;17906;47.684;10.806;2023-05-07T05:12:08;7.57;;;5.10;;
16737;SDS011;17906;47.684;10.806;2023-05-07T05:14:34;5.57;;;4.30;;
16737;SDS011;17906;47.684;10.806;2023-05-07T05:17:01;7.40;;;3.97;;
16737;SDS011;17906;47.684;10.806;2023-05-07T05:19:27;5.93;;;3.73;;
16737;SDS011;17906;47.684;10.806;2023-05-07T05:21:54;9.57;;;4.70;;
16737;SDS011;17906;47.684;10.806;2023-05-07T05:24:22;7.97;;;5.10;;
16737;SDS011;17906;47.684;10.806;2023-05-07T05:26:48;6.00;;;4.93;;
16737;SDS011;17906;47.684;10.806;2023-05-07T05:29:15;7.50;;;4.60;;
16737;SDS011;17906;47.684;10.806;2023-05-07T05:31:42;6.30;;;4.47;;
16737;SDS011;17906;47.684;10.806;2023-05-07T05:34:08;7.30;;;4.23;;
16737;SDS011;17906;47.684;10.806;2023-05-07T05:36:35;5.90;;;4.47;;
16737;SDS011;17906;47.684;10.806;2023-05-07T05:39:01;7.07;;;4.63;;
16737;SDS011;17906;47.684;10.806;2023-05-07T05:41:29;6.33;;;4.77;;
16737;SDS011;17906;47.684;10.806;2023-05-07T05:43:56;8.47;;;4.20;;
16737;SDS011;17906;47.684;10.806;2023-05-07T05:46:23;4.80;;;3.87;;
16737;SDS011;17906;47.684;10.806;2023-05-07T05:48:49;6.87;;;3.67;;
16737;SDS011;17906;47.684;10.806;2023-05-07T05:51:16;6.10;;;3.80;;
16737;SDS011;17906;47.684;10.806;2023-05-07T05:53:42;4.00;;;3.37;;
16737;SDS011;17906;47.684;10.806;2023-05-07T05:56:09;6.97;;;3.37;;
16737;SDS011;17906;47.684;10.806;2023-05-07T05:58:37;5.20;;;3.20;;
16737;SDS011;17906;47.684;10.806;2023-05-07T06:01:04;3.90;;;3.50;;
16737;SDS011;17906;47.684;10.806;2023-05-07T06:03:30;5.00;;;3.33;;
16737;SDS011;17906;47.684;10.806;2023-05-07T06:05:57;13.33;;;3.90;;
16737;SDS011;17906;47.684;10.806;2023-05-07T06:08:25;8.67;;;5.20;;
16737;SDS011;17906;47.684;10.806;2023-05-07T06:10:51;8.20;;;5.50;;
16737;SDS011;17906;47.684;10.806;2023-05-07T06:13:18;6.33;;;4.10;;
16737;SDS011;17906;47.684;10.806;2023-05-07T06:15:46;4.77;;;3.70;;
16737;SDS011;17906;47.684;10.806;2023-05-07T06:18:12;7.57;;;4.10;;
16737;SDS011;17906;47.684;10.806;2023-05-07T06:20:39;7.30;;;3.67;;
16737;SDS011;17906;47.684;10.806;2023-05-07T06:23:05;5.77;;;3.87;;
16737;SDS011;17906;47.684;10.806;2023-05-07T06:25:32;4.70;;;3.30;;
16737;SDS011;17906;47.684;10.806;2023-05-07T06:27:58;3.93;;;3.20;;
16737;SDS011;17906;47.684;10.806;2023-05-07T06:30:25;5.10;;;3.37;;
16737;SDS011;17906;47.684;10.806;2023-05-07T06:32:53;7.27;;;3.80;;
16737;SDS011;17906;47.684;10.806;2023-05-07T06:35:19;10.27;;;3.23;;
16737;SDS011;17906;47.684;10.806;2023-05-07T06:37:46;7.57;;;3.53;;
16737;SDS011;17906;47.684;10.806;2023-05-07T06:40:12;4.67;;;3.67;;
16737;SDS011;17906;47.684;10.806;2023-05-07T06:42:39;3.83;;;3.20;;
16737;SDS011;17906;47.684;10.806;2023-05-07T06:45:06;4.20;;;3.50;;
16737;SDS011;17906;47.684;10.806;2023-05-07T06:47:34;7.27;;;3.40;;
16737;SDS011;17906;47.684;10.806;2023-05-07T06:50:02;6.55;;;3.50;;
16737;SDS011;17906;47.684;10.806;2023-05-07T06:52:29;3.92;;;3.28;;
16737;SDS011;17906;47.684;10.806;2023-05-07T06:54:55;5.13;;;3.10;;
16737;SDS011;17906;47.684;10.806;2023-05-07T06:57:22;4.05;;;3.35;;
16737;SDS011;17906;47.684;10.806;2023-05-07T06:59:48;5.95;;;2.90;;
16737;SDS011;17906;47.684;10.806;2023-05-07T07:02:15;3.88;;;2.50;;
16737;SDS011;17906;47.684;10.806;2023-05-07T07:04:42;4.95;;;2.90;;
16737;SDS011;17906;47.684;10.806;2023-05-07T07:07:11;4.78;;;2.83;;
16737;SDS011;17906;47.684;10.806;2023-05-07T07:09:37;3.22;;;2.10;;
16737;SDS011;17906;47.684;10.806;2023-05-07T07:12:04;2.72;;;2.22;;
16737;SDS011;17906;47.684;10.806;2023-05-07T07:14:31;2.83;;;2.25;;
16737;SDS011;17906;47.684;10.806;2023-05-07T07:16:57;4.28;;;2.10;;
16737;SDS011;17906;47.684;10.806;2023-05-07T07:19:25;4.47;;;2.22;;
16737;SDS011;17906;47.684;10.806;2023-05-07T07:21:52;3.03;;;2.25;;
16737;SDS011;17906;47.684;10.806;2023-05-07T07:24:19;2.70;;;2.45;;
16737;SDS011;17906;47.684;10.806;2023-05-07T07:26:46;5.32;;;2.38;;
16737;SDS011;17906;47.684;10.806;2023-05-07T07:29:13;2.58;;;2.30;;
16737;SDS011;17906;47.684;10.806;2023-05-07T07:31:39;4.05;;;2.33;;
16737;SDS011;17906;47.684;10.806;2023-05-07T07:34:06;6.40;;;2.38;;
16737;SDS011;17906;47.684;10.806;2023-05-07T07:36:32;3.90;;;2.30;;
16737;SDS011;17906;47.684;10.806;2023-05-07T07:38:59;2.67;;;2.38;;
16737;SDS011;17906;47.684;10.806;2023-05-07T07:41:27;10.10;;;2.53;;
16737;SDS011;17906;47.684;10.806;2023-05-07T07:43:53;4.70;;;2.38;;
16737;SDS011;17906;47.684;10.806;2023-05-07T07:46:20;4.32;;;2.35;;
16737;SDS011;17906;47.684;10.806;2023-05-07T07:48:46;2.97;;;1.80;;
16737;SDS011;17906;47.684;10.806;2023-05-07T07:51:13;2.42;;;1.95;;
16737;SDS011;17906;47.684;10.806;2023-05-07T07:53:39;3.20;;;2.30;;
16737;SDS011;17906;47.684;10.806;2023-05-07T07:56:06;4.05;;;2.20;;
16737;SDS011;17906;47.684;10.806;2023-05-07T07:58:34;3.72;;;2.10;;
16737;SDS011;17906;47.684;10.806;2023-05-07T08:01:03;3.92;;;2.60;;
16737;SDS011;17906;47.684;10.806;2023-05-07T08:03:29;3.67;;;2.35;;
16737;SDS011;17906;47.684;10.806;2023-05-07T08:05:57;6.28;;;2.28;;
16737;SDS011;17906;47.684;10.806;2023-05-07T08:08:23;4.15;;;1.85;;
16737;SDS011;17906;47.684;10.806;2023-05-07T08:10:50;3.75;;;2.00;;
16737;SDS011;17906;47.684;10.806;2023-05-07T08:13:17;3.28;;;1.88;;
16737;SDS011;17906;47.684;10.806;2023-05-07T08:15:45;2.20;;;1.80;;
16737;SDS011;17906;47.684;10.806;2023-05-07T08:18:11;4.05;;;2.13;;
16737;SDS011;17906;47.684;10.806;2023-05-07T08:20:38;4.65;;;2.00;;
16737;SDS011;17906;47.684;10.806;2023-05-07T08:23:06;3.40;;;2.00;;
16737;SDS011;17906;47.684;10.806;2023-05-07T08:25:33;2.85;;;2.00;;
16737;SDS011;17906;47.684;10.806;2023-05-07T08:27:59;1.83;;;1.60;;
16737;SDS011;17906;47.684;10.806;2023-05-07T08:30:26;2.35;;;1.80;;
16737;SDS011;17906;47.684;10.806;2023-05-07T08:32:54;4.10;;;1.75;;
16737;SDS011;17906;47.684;10.806;2023-05-07T08:35:21;2.92;;;1.90;;
16737;SDS011;17906;47.684;10.806;2023-05-07T08:37:47;4.35;;;1.70;;
16737;SDS011;17906;47.684;10.806;2023-05-07T08:40:14;2.80;;;1.70;;
16737;SDS011;17906;47.684;10.806;2023-05-07T08:42:41;2.25;;;1.63;;
16737;SDS011;17906;47.684;10.806;2023-05-07T08:45:10;1.95;;;1.73;;
16737;SDS011;17906;47.684;10.806;2023-05-07T08:47:40;2.53;;;1.80;;
16737;SDS011;17906;47.684;10.806;2023-05-07T08:50:11;2.38;;;1.80;;
16737;SDS011;17906;47.684;10.806;2023-05-07T08:52:38;2.22;;;1.83;;
16737;SDS011;17906;47.684;10.806;2023-05-07T08:55:05;2.60;;;1.63;;
16737;SDS011;17906;47.684;10.806;2023-05-07T08:57:33;4.70;;;1.98;;
16737;SDS011;17906;47.684;10.806;2023-05-07T09:00:00;3.08;;;1.70;;
16737;SDS011;17906;47.684;10.806;2023-05-07T09:02:26;4.00;;;1.90;;
16737;SDS011;17906;47.684;10.806;2023-05-07T09:04:53;4.22;;;1.73;;
16737;SDS011;17906;47.684;10.806;2023-05-07T09:07:21;2.75;;;2.00;;
16737;SDS011;17906;47.684;10.806;2023-05-07T09:09:48;3.55;;;2.08;;
16737;SDS011;17906;47.684;10.806;2023-05-07T09:12:15;1.90;;;1.70;;
16737;SDS011;17906;47.684;10.806;2023-05-07T09:14:41;2.67;;;1.55;;
16737;SDS011;17906;47.684;10.806;2023-05-07T09:17:08;2.38;;;1.60;;
16737;SDS011;17906;47.684;10.806;2023-05-07T09:19:34;2.65;;;1.42;;
16737;SDS011;17906;47.684;10.806;2023-05-07T09:22:02;3.13;;;1.70;;
16737;SDS011;17906;47.684;10.806;2023-05-07T09:24:30;2.75;;;1.58;;
16737;SDS011;17906;47.684;10.806;2023-05-07T09:27:00;7.25;;;2.90;;
16737;SDS011;17906;47.684;10.806;2023-05-07T09:29:27;5.32;;;1.75;;
16737;SDS011;17906;47.684;10.806;2023-05-07T09:31:55;1.85;;;1.50;;
16737;SDS011;17906;47.684;10.806;2023-05-07T09:34:21;2.60;;;1.60;;
16737;SDS011;17906;47.684;10.806;2023-05-07T09:36:48;2.17;;;1.70;;
16737;SDS011;17906;47.684;10.806;2023-05-07T09:39:15;2.33;;;1.55;;
16737;SDS011;17906;47.684;10.806;2023-05-07T09:41:46;1.95;;;1.50;;
16737;SDS011;17906;47.684;10.806;2023-05-07T09:44:16;7.25;;;1.38;;
16737;SDS011;17906;47.684;10.806;2023-05-07T09:46:43;5.63;;;2.13;;
16737;SDS011;17906;47.684;10.806;2023-05-07T09:49:12;4.00;;;1.50;;
16737;SDS011;17906;47.684;10.806;2023-05-07T09:51:45;3.00;;;1.40;;
16737;SDS011;17906;47.684;10.806;2023-05-07T09:54:14;2.90;;;1.50;;
16737;SDS011;17906;47.684;10.806;2023-05-07T09:56:42;3.28;;;1.48;;
16737;SDS011;17906;47.684;10.806;2023-05-07T09:59:10;5.55;;;1.38;;
16737;SDS011;17906;47.684;10.806;2023-05-07T10:01:39;2.92;;;1.20;;
16737;SDS011;17906;47.684;10.806;2023-05-07T10:04:07;4.13;;;1.20;;
16737;SDS011;17906;47.684;10.806;2023-05-07T10:06:34;4.40;;;1.40;;
16737;SDS011;17906;47.684;10.806;2023-05-07T10:09:01;3.63;;;1.40;;
16737;SDS011;17906;47.684;10.806;2023-05-07T10:11:30;1.50;;;1.20;;
16737;SDS011;17906;47.684;10.806;2023-05-07T10:13:58;2.85;;;1.30;;
16737;SDS011;17906;47.684;10.806;2023-05-07T10:16:28;3.00;;;1.20;;
16737;SDS011;17906;47.684;10.806;2023-05-07T10:18:57;5.07;;;1.50;;
16737;SDS011;17906;47.684;10.806;2023-05-07T10:21:24;3.08;;;1.33;;
16737;SDS011;17906;47.684;10.806;2023-05-07T10:23:56;2.03;;;1.20;;
16737;SDS011;17906;47.684;10.806;2023-05-07T10:26:24;3.90;;;1.50;;
16737;SDS011;17906;47.684;10.806;2023-05-07T10:28:54;2.47;;;1.15;;
16737;SDS011;17906;47.684;10.806;2023-05-07T10:31:41;2.65;;;1.50;;
16737;SDS011;17906;47.684;10.806;2023-05-07T10:34:16;3.00;;;1.30;;
16737;SDS011;17906;47.684;10.806;2023-05-07T10:36:48;3.30;;;1.20;;
16737;SDS011;17906;47.684;10.806;2023-05-07T10:39:16;3.72;;;1.40;;
16737;SDS011;17906;47.684;10.806;2023-05-07T10:41:43;3.15;;;1.40;;
16737;SDS011;17906;47.684;10.806;2023-05-07T10:44:10;1.63;;;1.00;;
16737;SDS011;17906;47.684;10.806;2023-05-07T10:46:37;2.10;;;1.40;;
16737;SDS011;17906;47.684;10.806;2023-05-07T10:49:08;1.75;;;1.08;;
16737;SDS011;17906;47.684;10.806;2023-05-07T10:51:36;1.77;;;1.33;;
16737;SDS011;17906;47.684;10.806;2023-05-07T10:54:19;3.97;;;1.30;;
16737;SDS011;17906;47.684;10.806;2023-05-07T10:56:46;1.80;;;1.30;;
16737;SDS011;17906;47.684;10.806;2023-05-07T10:59:31;1.63;;;1.30;;
16737;SDS011;17906;47.684;10.806;2023-05-07T11:02:08;1.88;;;1.35;;
16737;SDS011;17906;47.684;10.806;2023-05-07T11:04:36;2.65;;;1.40;;
16737;SDS011;17906;47.684;10.806;2023-05-07T11:07:21;1.85;;;1.20;;
16737;SDS011;17906;47.684;10.806;2023-05-07T11:09:59;2.30;;;1.40;;
16737;SDS011;17906;47.684;10.806;2023-05-07T11:12:47;2.97;;;1.30;;
16737;SDS011;17906;47.684;10.806;2023-05-07T11:15:15;1.38;;;1.27;;
16737;SDS011;17906;47.684;10.806;2023-05-07T11:18:02;3.40;;;1.50;;
16737;SDS011;17906;47.684;10.806;2023-05-07T11:20:46;2.72;;;1.50;;
16737;SDS011;17906;47.684;10.806;2023-05-07T11:26:25;2.13;;;1.50;;
16737;SDS011;17906;47.684;10.806;2023-05-07T11:28:53;2.95;;;1.50;;
16737;SDS011;17906;47.684;10.806;2023-05-07T11:31:20;1.58;;;1.38;;
16737;SDS011;17906;47.684;10.806;2023-05-07T11:33:50;1.77;;;1.50;;
16737;SDS011;17906;47.684;10.806;2023-05-07T11:36:17;1.95;;;1.50;;
16737;SDS011;17906;47.684;10.806;2023-05-07T11:38:44;5.15;;;1.67;;
16737;SDS011;17906;47.684;10.806;2023-05-07T11:41:11;3.45;;;1.30;;
16737;SDS011;17906;47.684;10.806;2023-05-07T11:43:38;2.92;;;1.63;;
16737;SDS011;17906;47.684;10.806;2023-05-07T11:46:20;4.15;;;1.63;;
16737;SDS011;17906;47.684;10.806;2023-05-07T11:48:47;2.10;;;1.73;;
16737;SDS011;17906;47.684;10.806;2023-05-07T11:51:15;3.75;;;1.35;;
16737;SDS011;17906;47.684;10.806;2023-05-07T11:53:45;1.40;;;1.30;;
16737;SDS011;17906;47.684;10.806;2023-05-07T11:56:12;2.65;;;1.23;;
16737;SDS011;17906;47.684;10.806;2023-05-07T11:58:40;1.63;;;1.10;;
16737;SDS011;17906;47.684;10.806;2023-05-07T12:01:07;4.38;;;1.70;;
16737;SDS011;17906;47.684;10.806;2023-05-07T12:03:35;4.80;;;1.30;;
16737;SDS011;17906;47.684;10.806;2023-05-07T12:06:04;1.77;;;1.10;;
16737;SDS011;17906;47.684;10.806;2023-05-07T12:08:35;1.80;;;1.13;;
16737;SDS011;17906;47.684;10.806;2023-05-07T12:11:02;1.40;;;1.05;;
16737;SDS011;17906;47.684;10.806;2023-05-07T12:13:29;2.45;;;1.10;;
16737;SDS011;17906;47.684;10.806;2023-05-07T12:15:55;2.38;;;1.20;;
16737;SDS011;17906;47.684;10.806;2023-05-07T12:18:23;1.95;;;1.33;;
16737;SDS011;17906;47.684;10.806;2023-05-07T12:20:50;4.50;;;1.60;;
16737;SDS011;17906;47.684;10.806;2023-05-07T12:23:17;1.73;;;1.20;;
16737;SDS011;17906;47.684;10.806;2023-05-07T12:25:46;6.47;;;1.70;;
16737;SDS011;17906;47.684;10.806;2023-05-07T12:28:13;1.40;;;1.30;;
16737;SDS011;17906;47.684;10.806;2023-05-07T12:30:40;2.70;;;1.30;;
16737;SDS011;17906;47.684;10.806;2023-05-07T12:33:08;1.52;;;1.30;;
16737;SDS011;17906;47.684;10.806;2023-05-07T12:35:36;2.15;;;1.50;;
16737;SDS011;17906;47.684;10.806;2023-05-07T12:38:06;1.35;;;1.23;;
16737;SDS011;17906;47.684;10.806;2023-05-07T12:40:37;2.30;;;1.35;;
16737;SDS011;17906;47.684;10.806;2023-05-07T12:43:05;2.35;;;1.30;;
16737;SDS011;17906;47.684;10.806;2023-05-07T12:45:36;2.60;;;1.30;;
16737;SDS011;17906;47.684;10.806;2023-05-07T12:48:03;2.53;;;1.30;;
16737;SDS011;17906;47.684;10.806;2023-05-07T12:50:31;2.75;;;1.30;;
16737;SDS011;17906;47.684;10.806;2023-05-07T12:52:58;5.43;;;1.95;;
16737;SDS011;17906;47.684;10.806;2023-05-07T12:55:26;1.58;;;1.10;;
16737;SDS011;17906;47.684;10.806;2023-05-07T12:57:52;1.60;;;1.25;;
16737;SDS011;17906;47.684;10.806;2023-05-07T13:00:33;1.40;;;1.30;;
16737;SDS011;17906;47.684;10.806;2023-05-07T13:03:00;4.03;;;1.60;;
16737;SDS011;17906;47.684;10.806;2023-05-07T13:05:27;2.65;;;1.50;;
16737;SDS011;17906;47.684;10.806;2023-05-07T13:07:54;2.88;;;1.40;;
16737;SDS011;17906;47.684;10.806;2023-05-07T13:10:21;1.88;;;1.20;;
16737;SDS011;17906;47.684;10.806;2023-05-07T13:12:48;2.05;;;1.50;;
16737;SDS011;17906;47.684;10.806;2023-05-07T13:15:15;2.05;;;1.35;;
16737;SDS011;17906;47.684;10.806;2023-05-07T13:17:43;2.60;;;1.30;;
16737;SDS011;17906;47.684;10.806;2023-05-07T13:20:10;1.38;;;1.17;;
16737;SDS011;17906;47.684;10.806;2023-05-07T13:22:37;2.95;;;1.40;;
16737;SDS011;17906;47.684;10.806;2023-05-07T13:25:04;1.77;;;1.20;;
16737;SDS011;17906;47.684;10.806;2023-05-07T13:27:32;3.13;;;1.45;;
16737;SDS011;17906;47.684;10.806;2023-05-07T13:30:00;3.15;;;1.40;;
16737;SDS011;17906;47.684;10.806;2023-05-07T13:32:27;3.45;;;1.40;;
16737;SDS011;17906;47.684;10.806;2023-05-07T13:34:55;2.22;;;1.30;;
16737;SDS011;17906;47.684;10.806;2023-05-07T13:37:21;2.05;;;1.33;;
16737;SDS011;17906;47.684;10.806;2023-05-07T13:39:48;2.97;;;1.30;;
16737;SDS011;17906;47.684;10.806;2023-05-07T13:42:14;2.72;;;1.30;;
16737;SDS011;17906;47.684;10.806;2023-05-07T13:44:41;2.88;;;1.52;;
16737;SDS011;17906;47.684;10.806;2023-05-07T13:47:08;1.45;;;1.05;;
16737;SDS011;17906;47.684;10.806;2023-05-07T13:49:35;3.67;;;0.98;;
16737;SDS011;17906;47.684;10.806;2023-05-07T13:52:03;4.13;;;0.80;;
16737;SDS011;17906;47.684;10.806;2023-05-07T13:54:30;1.80;;;1.05;;
16737;SDS011;17906;47.684;10.806;2023-05-07T13:56:56;1.90;;;1.00;;
16737;SDS011;17906;47.684;10.806;2023-05-07T13:59:23;2.63;;;1.08;;
16737;SDS011;17906;47.684;10.806;2023-05-07T14:01:49;3.13;;;1.10;;
16737;SDS011;17906;47.684;10.806;2023-05-07T14:04:16;1.13;;;0.82;;
16737;SDS011;17906;47.684;10.806;2023-05-07T14:06:42;2.15;;;0.90;;
16737;SDS011;17906;47.684;10.806;2023-05-07T14:09:10;4.47;;;1.27;;
16737;SDS011;17906;47.684;10.806;2023-05-07T14:11:38;2.55;;;1.00;;
16737;SDS011;17906;47.684;10.806;2023-05-07T14:14:04;2.15;;;1.33;;
16737;SDS011;17906;47.684;10.806;2023-05-07T14:16:31;2.13;;;1.08;;
16737;SDS011;17906;47.684;10.806;2023-05-07T14:18:57;2.10;;;1.33;;
16737;SDS011;17906;47.684;10.806;2023-05-07T14:21:24;2.85;;;1.30;;
16737;SDS011;17906;47.684;10.806;2023-05-07T14:23:51;1.88;;;1.13;;
16737;SDS011;17906;47.684;10.806;2023-05-07T14:26:19;3.35;;;1.05;;
16737;SDS011;17906;47.684;10.806;2023-05-07T14:28:46;2.40;;;1.20;;
16737;SDS011;17906;47.684;10.806;2023-05-07T14:31:12;1.95;;;1.42;;
16737;SDS011;17906;47.684;10.806;2023-05-07T14:33:39;1.98;;;1.20;;
16737;SDS011;17906;47.684;10.806;2023-05-07T14:36:06;3.67;;;1.45;;
16737;SDS011;17906;47.684;10.806;2023-05-07T14:38:32;1.75;;;1.33;;